createdAt,value
2022-11-19T00:03:14.203Z,0
2022-11-19T00:08:14.140Z,0
2022-11-19T00:13:14.149Z,0
2022-11-19T00:18:14.167Z,0
2022-11-19T00:23:16.205Z,0
2022-11-19T00:28:14.200Z,0
2022-11-19T00:33:14.119Z,0
2022-11-19T00:38:14.151Z,0
2022-11-19T00:43:14.196Z,0
2022-11-19T00:48:14.142Z,0
2022-11-19T00:53:14.154Z,0
2022-11-19T00:58:14.137Z,0
2022-11-19T01:03:14.139Z,0
2022-11-19T01:08:14.177Z,0
2022-11-19T01:13:14.144Z,0
2022-11-19T01:18:14.936Z,0
2022-11-19T01:23:16.989Z,0
2022-11-19T01:28:14.146Z,0
2022-11-19T01:33:14.164Z,0
2022-11-19T01:38:14.158Z,0
2022-11-19T01:43:14.161Z,0
2022-11-19T01:48:14.194Z,0
2022-11-19T01:53:14.183Z,0
2022-11-19T01:58:14.143Z,0
2022-11-19T02:03:14.462Z,0
2022-11-19T02:08:14.157Z,0
2022-11-19T02:13:14.327Z,0
2022-11-19T02:18:14.153Z,0
2022-11-19T02:23:14.201Z,0
2022-11-19T02:28:14.201Z,0
2022-11-19T02:33:14.231Z,0
2022-11-19T02:38:14.163Z,0
2022-11-19T02:43:14.157Z,0
2022-11-19T02:48:14.178Z,0
2022-11-19T02:53:14.218Z,0
2022-11-19T02:58:14.159Z,0
2022-11-19T03:03:14.184Z,0
2022-11-19T03:08:14.214Z,0
2022-11-19T03:13:14.168Z,0
2022-11-19T03:18:14.163Z,0
2022-11-19T03:23:14.164Z,0
2022-11-19T03:28:14.303Z,0
2022-11-19T03:33:14.137Z,0
2022-11-19T03:38:14.189Z,0
2022-11-19T03:43:14.168Z,0
2022-11-19T03:48:14.213Z,0
2022-11-19T03:53:14.337Z,0
2022-11-19T03:58:14.165Z,0
2022-11-19T04:03:14.173Z,0
2022-11-19T04:08:14.186Z,0
2022-11-19T04:13:14.395Z,0
2022-11-19T04:18:14.177Z,0
2022-11-19T04:23:14.271Z,0
2022-11-19T04:28:14.231Z,0
2022-11-19T04:33:14.170Z,0
2022-11-19T04:38:14.186Z,0
2022-11-19T04:43:14.205Z,0
2022-11-19T04:48:14.222Z,0
2022-11-19T04:53:14.185Z,0
2022-11-19T04:58:14.204Z,0
2022-11-19T05:03:14.209Z,0
2022-11-19T05:08:14.248Z,0
2022-11-19T05:13:14.322Z,0
2022-11-19T05:18:14.274Z,0
2022-11-19T05:23:14.288Z,0
2022-11-19T05:28:14.331Z,0
2022-11-19T05:33:14.367Z,0
2022-11-19T05:38:14.219Z,0
2022-11-19T05:43:14.264Z,0
2022-11-19T05:48:14.224Z,0
2022-11-19T05:53:14.207Z,0
2022-11-19T05:58:14.201Z,0
2022-11-19T06:03:14.169Z,0
2022-11-19T06:08:14.402Z,0
2022-11-19T06:13:14.175Z,0
2022-11-19T06:18:14.214Z,0
2022-11-19T06:23:14.195Z,0
2022-11-19T06:28:14.517Z,0
2022-11-19T06:33:14.265Z,0
2022-11-19T06:38:14.198Z,0
2022-11-19T06:43:14.226Z,0
2022-11-19T06:48:14.183Z,0
2022-11-19T06:53:14.195Z,0
2022-11-19T06:58:14.235Z,0
2022-11-19T07:03:14.205Z,266
2022-11-19T07:08:14.190Z,0
2022-11-19T07:13:14.197Z,0
2022-11-19T07:18:14.259Z,0
2022-11-19T07:28:14.273Z,0
2022-11-19T07:33:14.178Z,265
2022-11-19T07:38:14.208Z,266
2022-11-19T07:43:14.305Z,266
2022-11-19T07:48:14.270Z,266
2022-11-19T07:53:14.217Z,266
2022-11-19T07:58:14.203Z,266
2022-11-19T08:03:14.209Z,268
2022-11-19T08:08:14.204Z,272
2022-11-19T08:13:14.180Z,276
2022-11-19T08:18:14.219Z,277
2022-11-19T08:23:14.240Z,271
2022-11-19T08:28:14.282Z,269
2022-11-19T08:33:14.199Z,270
2022-11-19T08:38:14.222Z,269
2022-11-19T08:43:14.173Z,271
2022-11-19T08:48:14.254Z,273
2022-11-19T08:53:14.226Z,270
2022-11-19T08:58:14.204Z,271
2022-11-19T09:03:14.221Z,271
2022-11-19T09:08:14.222Z,274
2022-11-19T09:13:14.185Z,270
2022-11-19T09:18:14.223Z,275
2022-11-19T09:23:14.205Z,284
2022-11-19T09:28:14.274Z,284
2022-11-19T09:33:14.194Z,275
2022-11-19T09:38:14.269Z,273
2022-11-19T09:43:17.319Z,271
2022-11-19T09:48:14.206Z,273
2022-11-19T09:53:14.218Z,279
2022-11-19T09:58:14.207Z,294
2022-11-19T10:03:14.274Z,301
2022-11-19T10:08:14.231Z,295
2022-11-19T10:13:14.180Z,292
2022-11-19T10:18:14.257Z,292
2022-11-19T10:23:14.167Z,289
2022-11-19T10:28:14.221Z,288
2022-11-19T10:33:14.209Z,289
2022-11-19T10:38:14.226Z,280
2022-11-19T10:43:14.999Z,279
2022-11-19T10:48:14.244Z,284
2022-11-19T10:53:14.318Z,277
2022-11-19T10:58:14.257Z,287
2022-11-19T11:03:14.251Z,273
2022-11-19T11:08:14.184Z,285
2022-11-19T11:13:14.224Z,296
2022-11-19T11:18:14.201Z,286
2022-11-19T11:23:14.250Z,278
2022-11-19T11:28:14.212Z,277
2022-11-19T11:33:14.260Z,280
2022-11-19T11:38:14.204Z,279
2022-11-19T11:43:14.198Z,279
2022-11-19T11:48:14.231Z,272
2022-11-19T11:53:14.205Z,279
2022-11-19T11:58:14.242Z,284
2022-11-19T12:03:14.240Z,283
2022-11-19T12:08:14.331Z,286
2022-11-19T12:13:14.245Z,281
2022-11-19T12:18:14.264Z,276
2022-11-19T12:23:14.228Z,274
2022-11-19T12:28:14.289Z,279
2022-11-19T12:33:14.213Z,283
2022-11-19T12:38:14.352Z,289
2022-11-19T12:43:14.247Z,278
2022-11-19T12:48:14.247Z,272
2022-11-19T12:53:14.211Z,271
2022-11-19T12:58:14.191Z,270
2022-11-19T13:03:14.226Z,269
2022-11-19T13:08:14.302Z,272
2022-11-19T13:13:14.321Z,273
2022-11-19T13:18:14.244Z,276
2022-11-19T13:23:14.273Z,275
2022-11-19T13:28:14.244Z,273
2022-11-19T13:33:14.234Z,267
2022-11-19T13:38:36.716Z,268
2022-11-19T13:43:36.816Z,265
2022-11-19T13:48:36.602Z,268
2022-11-19T13:53:36.590Z,269
2022-11-19T13:58:36.682Z,268
2022-11-19T14:03:36.620Z,268
2022-11-19T14:08:36.642Z,267
2022-11-19T14:13:36.615Z,266
2022-11-19T14:18:36.663Z,265
2022-11-19T14:23:36.636Z,266
2022-11-19T14:28:36.622Z,0
2022-11-19T14:33:36.637Z,0
2022-11-19T14:38:36.682Z,265
2022-11-19T14:43:36.769Z,265
2022-11-19T14:48:36.854Z,0
2022-11-19T14:53:36.600Z,0
2022-11-19T14:58:36.641Z,0
2022-11-19T15:03:36.734Z,0
2022-11-19T15:08:36.620Z,0
2022-11-19T15:13:36.601Z,0
2022-11-19T15:18:36.659Z,0
2022-11-19T15:23:36.638Z,0
2022-11-19T15:28:36.743Z,0
2022-11-19T15:33:36.645Z,0
2022-11-19T15:38:36.653Z,0
2022-11-19T15:43:36.598Z,0
2022-11-19T15:48:36.668Z,0
2022-11-19T15:53:36.713Z,0
2022-11-19T15:58:36.641Z,0
2022-11-19T16:03:36.636Z,0
2022-11-19T16:09:23.839Z,0
2022-11-19T16:14:22.749Z,0
2022-11-19T16:19:23.992Z,0
2022-11-19T16:24:31.534Z,0
2022-11-19T16:29:23.729Z,0
2022-11-19T16:34:22.802Z,0
2022-11-19T16:39:22.843Z,0
2022-11-19T16:44:23.063Z,0
2022-11-19T16:54:23.690Z,0
2022-11-19T16:59:22.696Z,0
2022-11-19T17:04:22.694Z,0
2022-11-19T17:09:22.607Z,0
2022-11-19T17:14:22.999Z,0
2022-11-19T17:19:22.596Z,0
2022-11-19T17:24:28.096Z,0
2022-11-19T17:29:22.604Z,0
2022-11-19T17:34:23.617Z,0
2022-11-19T17:39:25.827Z,0
2022-11-19T17:44:23.720Z,0
2022-11-19T17:49:22.590Z,0
2022-11-19T17:54:24.094Z,0
2022-11-19T17:59:22.645Z,0
2022-11-19T18:04:23.652Z,0
2022-11-19T18:09:23.825Z,0
2022-11-19T18:14:22.598Z,0
2022-11-19T18:19:23.175Z,0
2022-11-19T18:24:22.595Z,0
2022-11-19T18:29:23.036Z,0
2022-11-19T18:34:22.608Z,0
2022-11-19T18:39:22.878Z,0
2022-11-19T18:44:22.628Z,0
2022-11-19T18:49:23.827Z,0
2022-11-19T18:54:22.709Z,0
2022-11-19T18:59:23.855Z,0
2022-11-19T19:04:22.597Z,0
2022-11-19T19:09:23.992Z,0
2022-11-19T19:14:22.646Z,0
2022-11-19T19:19:24.050Z,0
2022-11-19T19:24:22.594Z,0
2022-11-19T19:29:22.786Z,0
2022-11-19T19:34:22.695Z,0
2022-11-19T19:39:22.672Z,0
2022-11-19T19:44:22.730Z,0
2022-11-19T19:49:22.819Z,0
2022-11-19T19:54:22.632Z,0
2022-11-19T19:59:23.030Z,0
2022-11-19T20:04:22.597Z,0
2022-11-19T20:09:22.860Z,0
2022-11-19T20:14:22.730Z,0
2022-11-19T20:19:23.998Z,0
2022-11-19T20:24:22.633Z,0
2022-11-19T20:29:23.847Z,0
2022-11-19T20:34:22.571Z,0
2022-11-19T20:39:22.773Z,0
2022-11-19T20:44:23.690Z,0
2022-11-19T20:49:23.422Z,0
2022-11-19T20:54:22.642Z,0
2022-11-19T20:59:22.927Z,0
2022-11-19T21:04:22.650Z,0
2022-11-19T21:09:22.831Z,0
2022-11-19T21:14:22.628Z,0
2022-11-19T21:19:22.950Z,0
2022-11-19T21:24:22.679Z,0
2022-11-19T21:29:22.865Z,0
2022-11-19T21:34:22.787Z,0
2022-11-19T21:39:22.836Z,0
2022-11-19T21:44:22.622Z,0
2022-11-19T21:49:22.896Z,0
2022-11-19T21:54:22.642Z,0
2022-11-19T21:59:22.935Z,0
2022-11-19T22:04:22.629Z,0
2022-11-19T22:09:23.627Z,0
2022-11-19T22:14:22.674Z,0
2022-11-19T22:19:23.164Z,0
2022-11-19T22:24:22.619Z,0
2022-11-19T22:29:23.019Z,0
2022-11-19T22:34:22.671Z,0
2022-11-19T22:39:22.876Z,0
2022-11-19T22:44:22.677Z,0
2022-11-19T22:49:23.641Z,0
2022-11-19T22:54:22.645Z,0
2022-11-19T22:59:23.003Z,0
2022-11-19T23:04:22.703Z,0
2022-11-19T23:09:23.176Z,0
2022-11-19T23:14:22.628Z,0
2022-11-19T23:19:22.895Z,0
2022-11-19T23:24:22.624Z,0
2022-11-19T23:29:23.857Z,0
2022-11-19T23:34:22.669Z,0
2022-11-19T23:39:22.939Z,0
2022-11-19T23:44:22.715Z,0
2022-11-19T23:49:22.860Z,0
2022-11-19T23:54:22.720Z,0
2022-11-19T23:59:25.974Z,0
